Aviation Digital Data Service (ADDS)

Output produced by METARs form (1732 UTC 03 June 2020)
found at http://www.aviationweather.gov/metar/data/
 
METAR text: VLVT 031600Z 18002KT 3000 BR FEW050 28/26 Q1008 NOSIG
Conditions at: VLVT (VIENTIANE/WATTAY, LA) observed 1600 UTC 03 June 2020
Temperature: 28.0°C (82°F)
Dewpoint: 26.0°C (79°F) [RH = 89%]
Pressure (altimeter): 29.76 inches Hg (1008.0 mb)
Winds: from the S (180 degrees) at 2 MPH (2 knots; 1.0 m/s)
Visibility: 1.86 miles (2.99 km)
Ceiling: at least 12,000 feet AGL
Clouds: few clouds at 5000 feet AGL
Weather: BR  (mist)

METAR text: VLVT 031530Z 18002KT 3000 BR SCT100 29/26 Q1008 NOSIG
Conditions at: VLVT (VIENTIANE/WATTAY, LA) observed 1530 UTC 03 June 2020
Temperature: 29.0°C (84°F)
Dewpoint: 26.0°C (79°F) [RH = 84%]
Pressure (altimeter): 29.76 inches Hg (1008.0 mb)
Winds: from the S (180 degrees) at 2 MPH (2 knots; 1.0 m/s)
Visibility: 1.86 miles (2.99 km)
Ceiling: at least 12,000 feet AGL
Clouds: scattered clouds at 10000 feet AGL
Weather: BR  (mist)

METAR text: VLVT 031500Z 16004KT 3000 BR FEW050 29/26 Q1008 NOSIG
Conditions at: VLVT (VIENTIANE/WATTAY, LA) observed 1500 UTC 03 June 2020
Temperature: 29.0°C (84°F)
Dewpoint: 26.0°C (79°F) [RH = 84%]
Pressure (altimeter): 29.76 inches Hg (1008.0 mb)
Winds: from the SSE (160 degrees) at 5 MPH (4 knots; 2.1 m/s)
Visibility: 1.86 miles (2.99 km)
Ceiling: at least 12,000 feet AGL
Clouds: few clouds at 5000 feet AGL
Weather: BR  (mist)

METAR text: VLVT 031430Z 16006KT 4000 BR FEW050 29/26 Q1007 NOSIG
Conditions at: VLVT (VIENTIANE/WATTAY, LA) observed 1430 UTC 03 June 2020
Temperature: 29.0°C (84°F)
Dewpoint: 26.0°C (79°F) [RH = 84%]
Pressure (altimeter): 29.73 inches Hg (1007.0 mb)
Winds: from the SSE (160 degrees) at 7 MPH (6 knots; 3.1 m/s)
Visibility: 2.49 miles (4.01 km)
Ceiling: at least 12,000 feet AGL
Clouds: few clouds at 5000 feet AGL
Weather: BR  (mist)

METAR text: VLVT 031400Z 14006KT 4000 TS FEW030CB SCT050 29/26 Q1007 CB,S NOSIG
Conditions at: VLVT (VIENTIANE/WATTAY, LA) observed 1400 UTC 03 June 2020
Temperature: 29.0°C (84°F)
Dewpoint: 26.0°C (79°F) [RH = 84%]
Pressure (altimeter): 29.73 inches Hg (1007.0 mb)
Winds: from the SE (140 degrees) at 7 MPH (6 knots; 3.1 m/s)
Visibility: 2.49 miles (4.01 km)
Ceiling: at least 12,000 feet AGL
Clouds: few clouds at 3000 feet AGL
scattered clouds at 5000 feet AGL
Weather: TS  (thunderstorm)

METAR text: VLVT 031330Z 12006KT 4000 BR FEW050 29/25 Q1007 NOSIG
Conditions at: VLVT (VIENTIANE/WATTAY, LA) observed 1330 UTC 03 June 2020
Temperature: 29.0°C (84°F)
Dewpoint: 25.0°C (77°F) [RH = 79%]
Pressure (altimeter): 29.73 inches Hg (1007.0 mb)
Winds: from the ESE (120 degrees) at 7 MPH (6 knots; 3.1 m/s)
Visibility: 2.49 miles (4.01 km)
Ceiling: at least 12,000 feet AGL
Clouds: few clouds at 5000 feet AGL
Weather: BR  (mist)

METAR text: VLVT 031300Z 12006KT 4000 BR FEW050 29/25 Q1006 NOSIG
Conditions at: VLVT (VIENTIANE/WATTAY, LA) observed 1300 UTC 03 June 2020
Temperature: 29.0°C (84°F)
Dewpoint: 25.0°C (77°F) [RH = 79%]
Pressure (altimeter): 29.70 inches Hg (1006.0 mb)
Winds: from the ESE (120 degrees) at 7 MPH (6 knots; 3.1 m/s)
Visibility: 2.49 miles (4.01 km)
Ceiling: at least 12,000 feet AGL
Clouds: few clouds at 5000 feet AGL
Weather: BR  (mist)

METAR text: VLVT 031230Z 14006KT 5000 BR SCT010 29/25 Q1006 NOSIG
Conditions at: VLVT (VIENTIANE/WATTAY, LA) observed 1230 UTC 03 June 2020
Temperature: 29.0°C (84°F)
Dewpoint: 25.0°C (77°F) [RH = 79%]
Pressure (altimeter): 29.70 inches Hg (1006.0 mb)
Winds: from the SE (140 degrees) at 7 MPH (6 knots; 3.1 m/s)
Visibility: 3 miles ( 5 km)
Ceiling: at least 12,000 feet AGL
Clouds: scattered clouds at 1000 feet AGL
Weather: BR  (mist)

METAR text: VLVT 031200Z 16006KT 5000 BR FEW020 SCT100 30/25 Q1005 NOSIG
Conditions at: VLVT (VIENTIANE/WATTAY, LA) observed 1200 UTC 03 June 2020
Temperature: 30.0°C (86°F)
Dewpoint: 25.0°C (77°F) [RH = 75%]
Pressure (altimeter): 29.68 inches Hg (1005.0 mb)
Winds: from the SSE (160 degrees) at 7 MPH (6 knots; 3.1 m/s)
Visibility: 3 miles ( 5 km)
Ceiling: at least 12,000 feet AGL
Clouds: few clouds at 2000 feet AGL
scattered clouds at 10000 feet AGL
Weather: BR  (mist)

METAR text: VLVT 031130Z 14004KT 8000 FEW020 SCT100 30/25 Q1004 NOSIG
Conditions at: VLVT (VIENTIANE/WATTAY, LA) observed 1130 UTC 03 June 2020
Temperature: 30.0°C (86°F)
Dewpoint: 25.0°C (77°F) [RH = 75%]
Pressure (altimeter): 29.65 inches Hg (1004.0 mb)
Winds: from the SE (140 degrees) at 5 MPH (4 knots; 2.1 m/s)
Visibility: 5 miles ( 8 km)
Ceiling: at least 12,000 feet AGL
Clouds: few clouds at 2000 feet AGL
scattered clouds at 10000 feet AGL
Weather: no significant weather observed at this time

METAR text: VLVT 031100Z 18004KT 9999 FEW020 SCT100 32/25 Q1004 NOSIG
Conditions at: VLVT (VIENTIANE/WATTAY, LA) observed 1100 UTC 03 June 2020
Temperature: 32.0°C (90°F)
Dewpoint: 25.0°C (77°F) [RH = 67%]
Pressure (altimeter): 29.65 inches Hg (1004.0 mb)
Winds: from the S (180 degrees) at 5 MPH (4 knots; 2.1 m/s)
Visibility: 6 or more miles (10+ km)
Ceiling: at least 12,000 feet AGL
Clouds: few clouds at 2000 feet AGL
scattered clouds at 10000 feet AGL
Weather: no significant weather observed at this time

METAR text: VLVT 031030Z 16004KT 9999 SCT016 33/25 Q1004 NOSIG
Conditions at: VLVT (VIENTIANE/WATTAY, LA) observed 1030 UTC 03 June 2020
Temperature: 33.0°C (91°F)
Dewpoint: 25.0°C (77°F) [RH = 63%]
Pressure (altimeter): 29.65 inches Hg (1004.0 mb)
Winds: from the SSE (160 degrees) at 5 MPH (4 knots; 2.1 m/s)
Visibility: 6 or more miles (10+ km)
Ceiling: at least 12,000 feet AGL
Clouds: scattered clouds at 1600 feet AGL
Weather: no significant weather observed at this time

METAR text: VLVT 031000Z 18004KT 9999 SCT016 33/25 Q1004 NOSIG
Conditions at: VLVT (VIENTIANE/WATTAY, LA) observed 1000 UTC 03 June 2020
Temperature: 33.0°C (91°F)
Dewpoint: 25.0°C (77°F) [RH = 63%]
Pressure (altimeter): 29.65 inches Hg (1004.0 mb)
Winds: from the S (180 degrees) at 5 MPH (4 knots; 2.1 m/s)
Visibility: 6 or more miles (10+ km)
Ceiling: at least 12,000 feet AGL
Clouds: scattered clouds at 1600 feet AGL
Weather: no significant weather observed at this time

METAR text: VLVT 030930Z 12004KT 9999 SCT016 33/25 Q1004 NOSIG
Conditions at: VLVT (VIENTIANE/WATTAY, LA) observed 0930 UTC 03 June 2020
Temperature: 33.0°C (91°F)
Dewpoint: 25.0°C (77°F) [RH = 63%]
Pressure (altimeter): 29.65 inches Hg (1004.0 mb)
Winds: from the ESE (120 degrees) at 5 MPH (4 knots; 2.1 m/s)
Visibility: 6 or more miles (10+ km)
Ceiling: at least 12,000 feet AGL
Clouds: scattered clouds at 1600 feet AGL
Weather: no significant weather observed at this time

METAR text: VLVT 030900Z 18004KT 9999 SCT016 33/25 Q1004 NOSIG
Conditions at: VLVT (VIENTIANE/WATTAY, LA) observed 0900 UTC 03 June 2020
Temperature: 33.0°C (91°F)
Dewpoint: 25.0°C (77°F) [RH = 63%]
Pressure (altimeter): 29.65 inches Hg (1004.0 mb)
Winds: from the S (180 degrees) at 5 MPH (4 knots; 2.1 m/s)
Visibility: 6 or more miles (10+ km)
Ceiling: at least 12,000 feet AGL
Clouds: scattered clouds at 1600 feet AGL
Weather: no significant weather observed at this time

METAR text: VLVT 030830Z 14004KT 9999 SCT016 33/25 Q1005 NOSIG
Conditions at: VLVT (VIENTIANE/WATTAY, LA) observed 0830 UTC 03 June 2020
Temperature: 33.0°C (91°F)
Dewpoint: 25.0°C (77°F) [RH = 63%]
Pressure (altimeter): 29.68 inches Hg (1005.0 mb)
Winds: from the SE (140 degrees) at 5 MPH (4 knots; 2.1 m/s)
Visibility: 6 or more miles (10+ km)
Ceiling: at least 12,000 feet AGL
Clouds: scattered clouds at 1600 feet AGL
Weather: no significant weather observed at this time

METAR text: VLVT 030800Z 16002KT 9999 SCT016 34/26 Q1005 NOSIG
Conditions at: VLVT (VIENTIANE/WATTAY, LA) observed 0800 UTC 03 June 2020
Temperature: 34.0°C (93°F)
Dewpoint: 26.0°C (79°F) [RH = 63%]
Pressure (altimeter): 29.68 inches Hg (1005.0 mb)
Winds: from the SSE (160 degrees) at 2 MPH (2 knots; 1.0 m/s)
Visibility: 6 or more miles (10+ km)
Ceiling: at least 12,000 feet AGL
Clouds: scattered clouds at 1600 feet AGL
Weather: no significant weather observed at this time

METAR text: VLVT 030730Z 12002KT 9999 SCT016 34/24 Q1006 NOSIG
Conditions at: VLVT (VIENTIANE/WATTAY, LA) observed 0730 UTC 03 June 2020
Temperature: 34.0°C (93°F)
Dewpoint: 24.0°C (75°F) [RH = 56%]
Pressure (altimeter): 29.70 inches Hg (1006.0 mb)
Winds: from the ESE (120 degrees) at 2 MPH (2 knots; 1.0 m/s)
Visibility: 6 or more miles (10+ km)
Ceiling: at least 12,000 feet AGL
Clouds: scattered clouds at 1600 feet AGL
Weather: no significant weather observed at this time

METAR text: VLVT 030700Z 12004KT 9999 SCT016 33/25 Q1006 NOSIG
Conditions at: VLVT (VIENTIANE/WATTAY, LA) observed 0700 UTC 03 June 2020
Temperature: 33.0°C (91°F)
Dewpoint: 25.0°C (77°F) [RH = 63%]
Pressure (altimeter): 29.70 inches Hg (1006.0 mb)
Winds: from the ESE (120 degrees) at 5 MPH (4 knots; 2.1 m/s)
Visibility: 6 or more miles (10+ km)
Ceiling: at least 12,000 feet AGL
Clouds: scattered clouds at 1600 feet AGL
Weather: no significant weather observed at this time

METAR text: VLVT 030630Z 00000KT 8000 SCT016 FEW200 33/25 Q1007 NOSIG
Conditions at: VLVT (VIENTIANE/WATTAY, LA) observed 0630 UTC 03 June 2020
Temperature: 33.0°C (91°F)
Dewpoint: 25.0°C (77°F) [RH = 63%]
Pressure (altimeter): 29.73 inches Hg (1007.0 mb)
Winds: calm
Visibility: 5 miles ( 8 km)
Ceiling: at least 12,000 feet AGL
Clouds: scattered clouds at 1600 feet AGL
few clouds at 20000 feet AGL
Weather: no significant weather observed at this time

METAR text: VLVT 030600Z 12004KT 8000 SCT016 FEW200 33/26 Q1008 NOSIG
Conditions at: VLVT (VIENTIANE/WATTAY, LA) observed 0600 UTC 03 June 2020
Temperature: 33.0°C (91°F)
Dewpoint: 26.0°C (79°F) [RH = 67%]
Pressure (altimeter): 29.76 inches Hg (1008.0 mb)
Winds: from the ESE (120 degrees) at 5 MPH (4 knots; 2.1 m/s)
Visibility: 5 miles ( 8 km)
Ceiling: at least 12,000 feet AGL
Clouds: scattered clouds at 1600 feet AGL
few clouds at 20000 feet AGL
Weather: no significant weather observed at this time

METAR text: VLVT 030530Z 22004KT 8000 SCT016 32/25 Q1008 NOSIG
Conditions at: VLVT (VIENTIANE/WATTAY, LA) observed 0530 UTC 03 June 2020
Temperature: 32.0°C (90°F)
Dewpoint: 25.0°C (77°F) [RH = 67%]
Pressure (altimeter): 29.76 inches Hg (1008.0 mb)
Winds: from the SW (220 degrees) at 5 MPH (4 knots; 2.1 m/s)
Visibility: 5 miles ( 8 km)
Ceiling: at least 12,000 feet AGL
Clouds: scattered clouds at 1600 feet AGL
Weather: no significant weather observed at this time

METAR text: VLVT 030500Z 00000KT 8000 SCT016 31/25 Q1008 NOSIG
Conditions at: VLVT (VIENTIANE/WATTAY, LA) observed 0500 UTC 03 June 2020
Temperature: 31.0°C (88°F)
Dewpoint: 25.0°C (77°F) [RH = 71%]
Pressure (altimeter): 29.76 inches Hg (1008.0 mb)
Winds: calm
Visibility: 5 miles ( 8 km)
Ceiling: at least 12,000 feet AGL
Clouds: scattered clouds at 1600 feet AGL
Weather: no significant weather observed at this time

METAR text: VLVT 030430Z 00000KT 8000 SCT016 FEW050 31/25 Q1009 NOSIG
Conditions at: VLVT (VIENTIANE/WATTAY, LA) observed 0430 UTC 03 June 2020
Temperature: 31.0°C (88°F)
Dewpoint: 25.0°C (77°F) [RH = 71%]
Pressure (altimeter): 29.79 inches Hg (1009.0 mb)
Winds: calm
Visibility: 5 miles ( 8 km)
Ceiling: at least 12,000 feet AGL
Clouds: scattered clouds at 1600 feet AGL
few clouds at 5000 feet AGL
Weather: no significant weather observed at this time

METAR text: VLVT 030400Z 18004KT 8000 SCT016 FEW050 30/25 Q1009 NOSIG
Conditions at: VLVT (VIENTIANE/WATTAY, LA) observed 0400 UTC 03 June 2020
Temperature: 30.0°C (86°F)
Dewpoint: 25.0°C (77°F) [RH = 75%]
Pressure (altimeter): 29.79 inches Hg (1009.0 mb)
Winds: from the S (180 degrees) at 5 MPH (4 knots; 2.1 m/s)
Visibility: 5 miles ( 8 km)
Ceiling: at least 12,000 feet AGL
Clouds: scattered clouds at 1600 feet AGL
few clouds at 5000 feet AGL
Weather: no significant weather observed at this time

METAR text: VLVT 030330Z 09004KT 8000 SCT010 BKN040 30/25 Q1010 NOSIG
Conditions at: VLVT (VIENTIANE/WATTAY, LA) observed 0330 UTC 03 June 2020
Temperature: 30.0°C (86°F)
Dewpoint: 25.0°C (77°F) [RH = 75%]
Pressure (altimeter): 29.82 inches Hg (1010.0 mb)
Winds: from the E (90 degrees) at 5 MPH (4 knots; 2.1 m/s)
Visibility: 5 miles ( 8 km)
Ceiling: 4000 feet AGL
Clouds: scattered clouds at 1000 feet AGL
broken clouds at 4000 feet AGL
Weather: no significant weather observed at this time

METAR text: VLVT 030300Z 09002KT 8000 SCT010 BKN040 29/25 Q1010 NOSIG
Conditions at: VLVT (VIENTIANE/WATTAY, LA) observed 0300 UTC 03 June 2020
Temperature: 29.0°C (84°F)
Dewpoint: 25.0°C (77°F) [RH = 79%]
Pressure (altimeter): 29.82 inches Hg (1010.0 mb)
Winds: from the E (90 degrees) at 2 MPH (2 knots; 1.0 m/s)
Visibility: 5 miles ( 8 km)
Ceiling: 4000 feet AGL
Clouds: scattered clouds at 1000 feet AGL
broken clouds at 4000 feet AGL
Weather: no significant weather observed at this time

METAR text: VLVT 030230Z 36002KT 7000 SCT016 BKN040 28/25 Q1010 NOSIG
Conditions at: VLVT (VIENTIANE/WATTAY, LA) observed 0230 UTC 03 June 2020
Temperature: 28.0°C (82°F)
Dewpoint: 25.0°C (77°F) [RH = 84%]
Pressure (altimeter): 29.82 inches Hg (1010.0 mb)
Winds: from the N (360 degrees) at 2 MPH (2 knots; 1.0 m/s)
Visibility: 4 miles ( 7 km)
Ceiling: 4000 feet AGL
Clouds: scattered clouds at 1600 feet AGL
broken clouds at 4000 feet AGL
Weather: no significant weather observed at this time

METAR text: VLVT 030200Z 04002KT 7000 SCT016 BKN040 27/25 Q1010 NOSIG
Conditions at: VLVT (VIENTIANE/WATTAY, LA) observed 0200 UTC 03 June 2020
Temperature: 27.0°C (81°F)
Dewpoint: 25.0°C (77°F) [RH = 89%]
Pressure (altimeter): 29.82 inches Hg (1010.0 mb)
Winds: from the NE (40 degrees) at 2 MPH (2 knots; 1.0 m/s)
Visibility: 4 miles ( 7 km)
Ceiling: 4000 feet AGL
Clouds: scattered clouds at 1600 feet AGL
broken clouds at 4000 feet AGL
Weather: no significant weather observed at this time

METAR text: VLVT 030130Z 12002KT 7000 SCT016 BKN040 27/26 Q1010 NOSIG
Conditions at: VLVT (VIENTIANE/WATTAY, LA) observed 0130 UTC 03 June 2020
Temperature: 27.0°C (81°F)
Dewpoint: 26.0°C (79°F) [RH = 94%]
Pressure (altimeter): 29.82 inches Hg (1010.0 mb)
Winds: from the ESE (120 degrees) at 2 MPH (2 knots; 1.0 m/s)
Visibility: 4 miles ( 7 km)
Ceiling: 4000 feet AGL
Clouds: scattered clouds at 1600 feet AGL
broken clouds at 4000 feet AGL
Weather: no significant weather observed at this time

METAR text: VLVT 030030Z 09002KT 7000 SCT010 BKN040 26/26 Q1009 NOSIG
Conditions at: VLVT (VIENTIANE/WATTAY, LA) observed 0030 UTC 03 June 2020
Temperature: 26.0°C (79°F)
Dewpoint: 26.0°C (79°F) [RH = 100%]
Pressure (altimeter): 29.79 inches Hg (1009.0 mb)
Winds: from the E (90 degrees) at 2 MPH (2 knots; 1.0 m/s)
Visibility: 4 miles ( 7 km)
Ceiling: 4000 feet AGL
Clouds: scattered clouds at 1000 feet AGL
broken clouds at 4000 feet AGL
Weather: no significant weather observed at this time

METAR text: VLVT 030000Z 12002KT 7000 SCT010 BKN040 26/26 Q1009 NOSIG
Conditions at: VLVT (VIENTIANE/WATTAY, LA) observed 0000 UTC 03 June 2020
Temperature: 26.0°C (79°F)
Dewpoint: 26.0°C (79°F) [RH = 100%]
Pressure (altimeter): 29.79 inches Hg (1009.0 mb)
Winds: from the ESE (120 degrees) at 2 MPH (2 knots; 1.0 m/s)
Visibility: 4 miles ( 7 km)
Ceiling: 4000 feet AGL
Clouds: scattered clouds at 1000 feet AGL
broken clouds at 4000 feet AGL
Weather: no significant weather observed at this time

METAR text: VLVT 022300Z 00000KT 6000 BKN040 25/25 Q1008 NOSIG
Conditions at: VLVT (VIENTIANE/WATTAY, LA) observed 2300 UTC 02 June 2020
Temperature: 25.0°C (77°F)
Dewpoint: 25.0°C (77°F) [RH = 100%]
Pressure (altimeter): 29.76 inches Hg (1008.0 mb)
Winds: calm
Visibility: 4 miles ( 6 km)
Ceiling: 4000 feet AGL
Clouds: broken clouds at 4000 feet AGL
Weather: no significant weather observed at this time

METAR text: VLVT 021430Z 14002KT 4000 BR BKN200 26/26 Q1010 NOSIG
Conditions at: VLVT (VIENTIANE/WATTAY, LA) observed 1430 UTC 02 June 2020
Temperature: 26.0°C (79°F)
Dewpoint: 26.0°C (79°F) [RH = 100%]
Pressure (altimeter): 29.82 inches Hg (1010.0 mb)
Winds: from the SE (140 degrees) at 2 MPH (2 knots; 1.0 m/s)
Visibility: 2.49 miles (4.01 km)
Ceiling: 20000 feet AGL
Clouds: broken clouds at 20000 feet AGL
Weather: BR  (mist)

METAR text: VLVT 021400Z 14004KT 4000 BR BKN200 25/25 Q1009 NOSIG
Conditions at: VLVT (VIENTIANE/WATTAY, LA) observed 1400 UTC 02 June 2020
Temperature: 25.0°C (77°F)
Dewpoint: 25.0°C (77°F) [RH = 100%]
Pressure (altimeter): 29.79 inches Hg (1009.0 mb)
Winds: from the SE (140 degrees) at 5 MPH (4 knots; 2.1 m/s)
Visibility: 2.49 miles (4.01 km)
Ceiling: 20000 feet AGL
Clouds: broken clouds at 20000 feet AGL
Weather: BR  (mist)

METAR text: VLVT 021330Z 18002KT 4000 BR FEW040 BKN200 25/25 Q1008 NOSIG
Conditions at: VLVT (VIENTIANE/WATTAY, LA) observed 1330 UTC 02 June 2020
Temperature: 25.0°C (77°F)
Dewpoint: 25.0°C (77°F) [RH = 100%]
Pressure (altimeter): 29.76 inches Hg (1008.0 mb)
Winds: from the S (180 degrees) at 2 MPH (2 knots; 1.0 m/s)
Visibility: 2.49 miles (4.01 km)
Ceiling: 20000 feet AGL
Clouds: few clouds at 4000 feet AGL
broken clouds at 20000 feet AGL
Weather: BR  (mist)

METAR text: VLVT 021300Z 16002KT 5000 BR FEW040 BKN200 25/25 Q1008 NOSIG
Conditions at: VLVT (VIENTIANE/WATTAY, LA) observed 1300 UTC 02 June 2020
Temperature: 25.0°C (77°F)
Dewpoint: 25.0°C (77°F) [RH = 100%]
Pressure (altimeter): 29.76 inches Hg (1008.0 mb)
Winds: from the SSE (160 degrees) at 2 MPH (2 knots; 1.0 m/s)
Visibility: 3 miles ( 5 km)
Ceiling: 20000 feet AGL
Clouds: few clouds at 4000 feet AGL
broken clouds at 20000 feet AGL
Weather: BR  (mist)

METAR text: VLVT 021230Z 16002KT 5000 BR FEW040 BKN200 25/25 Q1008 NOSIG
Conditions at: VLVT (VIENTIANE/WATTAY, LA) observed 1230 UTC 02 June 2020
Temperature: 25.0°C (77°F)
Dewpoint: 25.0°C (77°F) [RH = 100%]
Pressure (altimeter): 29.76 inches Hg (1008.0 mb)
Winds: from the SSE (160 degrees) at 2 MPH (2 knots; 1.0 m/s)
Visibility: 3 miles ( 5 km)
Ceiling: 20000 feet AGL
Clouds: few clouds at 4000 feet AGL
broken clouds at 20000 feet AGL
Weather: BR  (mist)

METAR text: VLVT 021200Z 18002KT 6000 FEW040 BKN200 25/25 Q1007 NOSIG
Conditions at: VLVT (VIENTIANE/WATTAY, LA) observed 1200 UTC 02 June 2020
Temperature: 25.0°C (77°F)
Dewpoint: 25.0°C (77°F) [RH = 100%]
Pressure (altimeter): 29.73 inches Hg (1007.0 mb)
Winds: from the S (180 degrees) at 2 MPH (2 knots; 1.0 m/s)
Visibility: 4 miles ( 6 km)
Ceiling: 20000 feet AGL
Clouds: few clouds at 4000 feet AGL
broken clouds at 20000 feet AGL
Weather: no significant weather observed at this time

METAR text: VLVT 021130Z 24004KT 7000 SCT016 BKN040 26/26 Q1006 NOSIG
Conditions at: VLVT (VIENTIANE/WATTAY, LA) observed 1130 UTC 02 June 2020
Temperature: 26.0°C (79°F)
Dewpoint: 26.0°C (79°F) [RH = 100%]
Pressure (altimeter): 29.70 inches Hg (1006.0 mb)
Winds: from the WSW (240 degrees) at 5 MPH (4 knots; 2.1 m/s)
Visibility: 4 miles ( 7 km)
Ceiling: 4000 feet AGL
Clouds: scattered clouds at 1600 feet AGL
broken clouds at 4000 feet AGL
Weather: no significant weather observed at this time

METAR text: VLVT 021100Z 22006KT 8000 SCT020 BKN040 26/26 Q1006 NOSIG
Conditions at: VLVT (VIENTIANE/WATTAY, LA) observed 1100 UTC 02 June 2020
Temperature: 26.0°C (79°F)
Dewpoint: 26.0°C (79°F) [RH = 100%]
Pressure (altimeter): 29.70 inches Hg (1006.0 mb)
Winds: from the SW (220 degrees) at 7 MPH (6 knots; 3.1 m/s)
Visibility: 5 miles ( 8 km)
Ceiling: 4000 feet AGL
Clouds: scattered clouds at 2000 feet AGL
broken clouds at 4000 feet AGL
Weather: no significant weather observed at this time

METAR text: VLVT 021030Z 22004KT 8000 SCT016 BKN040 26/26 Q1006 NOSIG
Conditions at: VLVT (VIENTIANE/WATTAY, LA) observed 1030 UTC 02 June 2020
Temperature: 26.0°C (79°F)
Dewpoint: 26.0°C (79°F) [RH = 100%]
Pressure (altimeter): 29.70 inches Hg (1006.0 mb)
Winds: from the SW (220 degrees) at 5 MPH (4 knots; 2.1 m/s)
Visibility: 5 miles ( 8 km)
Ceiling: 4000 feet AGL
Clouds: scattered clouds at 1600 feet AGL
broken clouds at 4000 feet AGL
Weather: no significant weather observed at this time

METAR text: VLVT 021000Z 24004KT 8000 SCT016 BKN040 26/26 Q1006 NOSIG
Conditions at: VLVT (VIENTIANE/WATTAY, LA) observed 1000 UTC 02 June 2020
Temperature: 26.0°C (79°F)
Dewpoint: 26.0°C (79°F) [RH = 100%]
Pressure (altimeter): 29.70 inches Hg (1006.0 mb)
Winds: from the WSW (240 degrees) at 5 MPH (4 knots; 2.1 m/s)
Visibility: 5 miles ( 8 km)
Ceiling: 4000 feet AGL
Clouds: scattered clouds at 1600 feet AGL
broken clouds at 4000 feet AGL
Weather: no significant weather observed at this time

METAR text: VLVT 020930Z 20002KT 8000 SCT016 BKN040 27/26 Q1006 NOSIG
Conditions at: VLVT (VIENTIANE/WATTAY, LA) observed 0930 UTC 02 June 2020
Temperature: 27.0°C (81°F)
Dewpoint: 26.0°C (79°F) [RH = 94%]
Pressure (altimeter): 29.70 inches Hg (1006.0 mb)
Winds: from the SSW (200 degrees) at 2 MPH (2 knots; 1.0 m/s)
Visibility: 5 miles ( 8 km)
Ceiling: 4000 feet AGL
Clouds: scattered clouds at 1600 feet AGL
broken clouds at 4000 feet AGL
Weather: no significant weather observed at this time

METAR text: VLVT 020900Z 20002KT 8000 SCT016 BKN040 26/26 Q1007 NOSIG
Conditions at: VLVT (VIENTIANE/WATTAY, LA) observed 0900 UTC 02 June 2020
Temperature: 26.0°C (79°F)
Dewpoint: 26.0°C (79°F) [RH = 100%]
Pressure (altimeter): 29.73 inches Hg (1007.0 mb)
Winds: from the SSW (200 degrees) at 2 MPH (2 knots; 1.0 m/s)
Visibility: 5 miles ( 8 km)
Ceiling: 4000 feet AGL
Clouds: scattered clouds at 1600 feet AGL
broken clouds at 4000 feet AGL
Weather: no significant weather observed at this time

METAR text: VLVT 020830Z 18004KT 8000 SCT016 BKN040 26/26 Q1006 NOSIG
Conditions at: VLVT (VIENTIANE/WATTAY, LA) observed 0830 UTC 02 June 2020
Temperature: 26.0°C (79°F)
Dewpoint: 26.0°C (79°F) [RH = 100%]
Pressure (altimeter): 29.70 inches Hg (1006.0 mb)
Winds: from the S (180 degrees) at 5 MPH (4 knots; 2.1 m/s)
Visibility: 5 miles ( 8 km)
Ceiling: 4000 feet AGL
Clouds: scattered clouds at 1600 feet AGL
broken clouds at 4000 feet AGL
Weather: no significant weather observed at this time

METAR text: VLVT 020800Z 20006KT 7000 DZ SCT010 BKN040 27/27 Q1008 NOSIG
Conditions at: VLVT (VIENTIANE/WATTAY, LA) observed 0800 UTC 02 June 2020
Temperature: 27.0°C (81°F)
Dewpoint: 27.0°C (81°F) [RH = 100%]
Pressure (altimeter): 29.76 inches Hg (1008.0 mb)
Winds: from the SSW (200 degrees) at 7 MPH (6 knots; 3.1 m/s)
Visibility: 4 miles ( 7 km)
Ceiling: 4000 feet AGL
Clouds: scattered clouds at 1000 feet AGL
broken clouds at 4000 feet AGL
Weather: DZ  (moderate drizzle)

METAR text: VLVT 020730Z 20004KT 5000 RA BKN010 BKN083 27/27 Q1008 NOSIG
Conditions at: VLVT (VIENTIANE/WATTAY, LA) observed 0730 UTC 02 June 2020
Temperature: 27.0°C (81°F)
Dewpoint: 27.0°C (81°F) [RH = 100%]
Pressure (altimeter): 29.76 inches Hg (1008.0 mb)
Winds: from the SSW (200 degrees) at 5 MPH (4 knots; 2.1 m/s)
Visibility: 3 miles ( 5 km)
Ceiling: 1000 feet AGL
Clouds: broken clouds at 1000 feet AGL
broken clouds at 8300 feet AGL
Weather: RA  (moderate rain)

METAR text: VLVT 020700Z 18006KT 5000 RA BKN010 BKN083 27/27 Q1008 NOSIG
Conditions at: VLVT (VIENTIANE/WATTAY, LA) observed 0700 UTC 02 June 2020
Temperature: 27.0°C (81°F)
Dewpoint: 27.0°C (81°F) [RH = 100%]
Pressure (altimeter): 29.76 inches Hg (1008.0 mb)
Winds: from the S (180 degrees) at 7 MPH (6 knots; 3.1 m/s)
Visibility: 3 miles ( 5 km)
Ceiling: 1000 feet AGL
Clouds: broken clouds at 1000 feet AGL
broken clouds at 8300 feet AGL
Weather: RA  (moderate rain)

METAR text: VLVT 020630Z 04006KT 8000 BKN016 BKN050 30/26 Q1009 NOSIG
Conditions at: VLVT (VIENTIANE/WATTAY, LA) observed 0630 UTC 02 June 2020
Temperature: 30.0°C (86°F)
Dewpoint: 26.0°C (79°F) [RH = 79%]
Pressure (altimeter): 29.79 inches Hg (1009.0 mb)
Winds: from the NE (40 degrees) at 7 MPH (6 knots; 3.1 m/s)
Visibility: 5 miles ( 8 km)
Ceiling: 1600 feet AGL
Clouds: broken clouds at 1600 feet AGL
broken clouds at 5000 feet AGL
Weather: no significant weather observed at this time

METAR text: VLVT 020600Z 02004KT 8000 SCT016 BKN050 30/25 Q1009 NOSIG
Conditions at: VLVT (VIENTIANE/WATTAY, LA) observed 0600 UTC 02 June 2020
Temperature: 30.0°C (86°F)
Dewpoint: 25.0°C (77°F) [RH = 75%]
Pressure (altimeter): 29.79 inches Hg (1009.0 mb)
Winds: from the NNE (20 degrees) at 5 MPH (4 knots; 2.1 m/s)
Visibility: 5 miles ( 8 km)
Ceiling: 5000 feet AGL
Clouds: scattered clouds at 1600 feet AGL
broken clouds at 5000 feet AGL
Weather: no significant weather observed at this time

Forecast for: VLVT (VIENTIANE/WATTAY, LA)
Text: TAF VLVT 031100Z 0312/0412 16004KT 8000 SCT020 SCT050
Forecast period: 1200 UTC 03 June 2020 to 1200 UTC 04 June 2020
Forecast type: FROM: standard forecast or significant change
Winds: from the SSE (160 degrees) at 5 MPH (4 knots; 2.1 m/s)
Visibility: 5 miles (8 km)
Ceiling: at least 12,000 feet AGL
Clouds: scattered clouds at 2000 feet AGL
scattered clouds at 5000 feet AGL
Weather: no significant weather forecast for this period